createdAt,value
2019-05-19T00:02:46.248Z,12.56
2019-05-19T00:05:33.592Z,13.14
2019-05-19T00:08:20.707Z,12.66
2019-05-19T00:11:07.540Z,12.53
2019-05-19T00:13:55.910Z,12.42
2019-05-19T00:16:43.073Z,12.37
2019-05-19T00:19:31.377Z,13.02
2019-05-19T00:22:19.416Z,13.18
2019-05-19T00:25:06.819Z,12.46
2019-05-19T00:27:54.303Z,12.19
2019-05-19T00:30:49.270Z,12.07
2019-05-19T00:33:36.497Z,11.99
2019-05-19T00:36:25.876Z,11.92
2019-05-19T00:39:10.642Z,11.89
2019-05-19T00:41:57.559Z,11.86
2019-05-19T00:44:45.315Z,11.86
2019-05-19T00:47:32.514Z,11.87
2019-05-19T00:50:19.436Z,11.87
2019-05-19T00:53:06.753Z,11.89
2019-05-19T00:55:53.853Z,11.90
2019-05-19T00:58:41.574Z,11.89
2019-05-19T01:01:30.941Z,11.87
2019-05-19T01:04:17.681Z,11.86
2019-05-19T01:07:04.784Z,11.84
2019-05-19T01:09:51.526Z,11.83
2019-05-19T01:12:38.813Z,11.84
2019-05-19T01:15:39.879Z,11.84
2019-05-19T01:18:27.173Z,11.86
2019-05-19T01:21:15.312Z,12.54
2019-05-19T01:24:02.330Z,12.12
2019-05-19T01:26:49.424Z,12.03
2019-05-19T01:29:36.137Z,11.98
2019-05-19T01:32:24.176Z,11.97
2019-05-19T01:35:11.160Z,11.96
2019-05-19T01:37:57.975Z,11.96
2019-05-19T01:40:46.650Z,12.65
2019-05-19T01:43:33.786Z,12.23
2019-05-19T01:49:30.444Z,12.36
2019-05-19T01:52:18.042Z,12.28
2019-05-19T01:55:08.541Z,12.22
2019-05-19T01:57:56.884Z,12.86
2019-05-19T02:00:44.325Z,12.38
2019-05-19T02:03:32.450Z,12.26
2019-05-19T02:06:34.326Z,12.20
2019-05-19T02:09:28.630Z,12.14
2019-05-19T02:12:15.716Z,12.07
2019-05-19T02:15:03.202Z,12.01
2019-05-19T02:17:50.759Z,12.61
2019-05-19T02:20:38.588Z,12.12
2019-05-19T02:23:39.971Z,11.97
2019-05-19T02:26:27.454Z,11.88
2019-05-19T02:29:15.387Z,11.81
2019-05-19T02:32:02.200Z,11.77
2019-05-19T02:34:50.262Z,11.73
2019-05-19T02:37:38.184Z,11.70
2019-05-19T02:40:24.923Z,11.67
2019-05-19T02:43:11.819Z,11.66
2019-05-19T02:45:59.830Z,11.65
2019-05-19T02:51:53.435Z,12.30
2019-05-19T02:54:41.460Z,11.85
2019-05-19T02:57:28.486Z,12.42
2019-05-19T03:00:16.089Z,11.92
2019-05-19T03:03:03.087Z,11.78
2019-05-19T03:05:53.517Z,11.68
2019-05-19T03:08:40.591Z,12.31
2019-05-19T03:11:27.554Z,12.45
2019-05-19T03:14:14.478Z,11.89
2019-05-19T03:17:01.292Z,11.75
2019-05-19T03:19:49.191Z,11.64
2019-05-19T03:22:36.943Z,11.54
2019-05-19T03:25:24.398Z,11.46
2019-05-19T03:28:11.704Z,11.38
2019-05-19T03:31:05.390Z,11.28
2019-05-19T03:33:56.787Z,11.05
2019-05-19T03:36:44.690Z,10.83
2019-05-19T03:39:35.593Z,10.68
2019-05-19T03:42:29.922Z,10.55
2019-05-19T03:45:17.093Z,10.44
2019-05-19T03:48:04.214Z,10.40
2019-05-19T03:50:51.064Z,10.38
2019-05-19T03:53:38.955Z,10.39
2019-05-19T03:56:34.980Z,10.41
2019-05-19T03:59:22.923Z,10.44
2019-05-19T04:02:24.681Z,11.19
2019-05-19T04:05:11.914Z,10.76
2019-05-19T04:07:59.614Z,10.76
2019-05-19T04:10:46.660Z,11.55
2019-05-19T04:13:34.264Z,11.16
2019-05-19T04:16:22.005Z,11.10
2019-05-19T04:19:09.429Z,11.12
2019-05-19T04:21:56.666Z,11.17
2019-05-19T04:24:43.802Z,11.21
2019-05-19T04:27:31.181Z,11.29
2019-05-19T04:30:18.467Z,11.36
2019-05-19T04:39:18.333Z,12.43
2019-05-19T04:42:05.580Z,12.06
2019-05-19T04:44:52.919Z,12.09
2019-05-19T04:47:39.732Z,12.20
2019-05-19T04:50:26.573Z,13.00
2019-05-19T04:53:14.140Z,12.67
2019-05-19T04:56:00.917Z,12.73
2019-05-19T04:58:47.994Z,12.83
2019-05-19T05:01:36.398Z,13.61
2019-05-19T05:04:29.101Z,13.26
2019-05-19T05:07:12.979Z,13.29
2019-05-19T05:10:01.141Z,13.38
2019-05-19T05:12:48.208Z,13.50
2019-05-19T05:15:35.681Z,13.61
2019-05-19T05:18:23.945Z,13.72
2019-05-19T05:21:11.948Z,13.83
2019-05-19T05:23:59.087Z,13.95
2019-05-19T05:26:46.201Z,14.09
2019-05-19T05:29:33.902Z,14.22
2019-05-19T05:32:20.780Z,14.34
2019-05-19T05:35:08.166Z,14.49
2019-05-19T05:37:56.816Z,14.66
2019-05-19T05:40:43.515Z,14.81
2019-05-19T05:43:31.343Z,15.62
2019-05-19T05:46:18.155Z,15.38
2019-05-19T05:49:06.089Z,15.47
2019-05-19T05:51:52.824Z,15.58
2019-05-19T05:54:40.275Z,15.71
2019-05-19T05:57:28.899Z,15.83
2019-05-19T06:00:16.087Z,15.97
2019-05-19T06:03:02.946Z,16.13
2019-05-19T06:05:50.246Z,16.27
2019-05-19T06:08:37.399Z,16.41
2019-05-19T06:11:25.592Z,17.28
2019-05-19T06:14:14.037Z,17.67
2019-05-19T06:17:01.178Z,17.34
2019-05-19T06:22:58.027Z,17.58
2019-05-19T06:25:44.925Z,17.75
2019-05-19T06:28:31.968Z,17.92
2019-05-19T06:31:20.075Z,18.00
2019-05-19T06:34:07.495Z,18.17
2019-05-19T06:36:55.158Z,19.15
2019-05-19T06:39:40.851Z,18.80
2019-05-19T06:45:38.699Z,19.10
2019-05-19T06:51:32.866Z,19.46
2019-05-19T06:54:19.932Z,19.66
2019-05-19T06:57:07.357Z,19.83
2019-05-19T06:59:54.317Z,19.97
2019-05-19T07:02:40.957Z,20.08
2019-05-19T07:05:29.529Z,20.18
2019-05-19T07:08:16.850Z,21.19
2019-05-19T07:11:04.224Z,20.78
2019-05-19T07:13:51.444Z,20.86
2019-05-19T07:16:38.509Z,21.72
2019-05-19T07:19:25.367Z,21.16
2019-05-19T07:22:12.625Z,21.17
2019-05-19T07:24:59.299Z,21.28
2019-05-19T07:27:46.655Z,21.32
2019-05-19T07:30:34.065Z,21.38
2019-05-19T07:33:20.831Z,21.38
2019-05-19T07:36:07.609Z,21.39
2019-05-19T07:39:08.959Z,21.43
2019-05-19T07:41:56.063Z,21.51
2019-05-19T07:44:45.402Z,21.65
2019-05-19T07:47:30.713Z,21.72
2019-05-19T07:50:17.633Z,21.88
2019-05-19T07:53:04.482Z,21.98
2019-05-19T07:55:51.230Z,22.08
2019-05-19T07:58:38.532Z,22.20
2019-05-19T08:01:25.582Z,22.34
2019-05-19T08:04:12.352Z,22.47
2019-05-19T08:06:59.382Z,22.62
2019-05-19T08:09:46.823Z,22.84
2019-05-19T08:12:33.577Z,22.91
2019-05-19T08:15:20.934Z,23.12
2019-05-19T08:18:08.122Z,23.23
2019-05-19T08:20:55.286Z,24.45
2019-05-19T08:23:56.847Z,23.73
2019-05-19T08:26:29.422Z,23.70
2019-05-19T08:29:16.263Z,23.73
2019-05-19T08:32:03.429Z,23.81
2019-05-19T08:34:50.698Z,23.90
2019-05-19T08:37:37.579Z,25.15
2019-05-19T08:46:37.617Z,23.85
2019-05-19T08:58:43.292Z,24.06
2019-05-19T09:01:31.453Z,24.14
2019-05-19T09:04:18.153Z,24.35
2019-05-19T09:07:05.151Z,24.49
2019-05-19T09:12:58.152Z,24.89
2019-05-19T09:15:45.337Z,25.01
2019-05-19T09:18:33.263Z,25.21
2019-05-19T09:24:33.121Z,25.40
2019-05-19T09:30:25.971Z,25.62
2019-05-19T09:33:13.034Z,25.76
2019-05-19T09:36:00.179Z,25.85
2019-05-19T09:38:47.113Z,25.87
2019-05-19T09:41:33.849Z,25.99
2019-05-19T09:44:35.296Z,27.34
2019-05-19T09:47:24.123Z,27.67
2019-05-19T09:50:11.198Z,26.60
2019-05-19T09:52:59.367Z,27.46
2019-05-19T09:55:46.902Z,26.74
2019-05-19T09:58:35.130Z,26.48
2019-05-19T10:01:23.785Z,26.38
2019-05-19T10:04:11.670Z,26.48
2019-05-19T10:06:58.342Z,26.68
2019-05-19T10:09:57.726Z,26.76
2019-05-19T10:12:48.223Z,26.89
2019-05-19T10:15:35.063Z,27.03
2019-05-19T10:18:22.759Z,27.11
2019-05-19T10:21:11.711Z,27.16
2019-05-19T10:24:04.582Z,27.21
2019-05-19T10:26:51.920Z,27.26
2019-05-19T10:29:38.877Z,27.27
2019-05-19T10:32:25.966Z,27.35
2019-05-19T10:35:16.206Z,27.48
2019-05-19T10:38:03.326Z,27.59
2019-05-19T10:40:50.060Z,27.63
2019-05-19T10:43:37.543Z,27.66
2019-05-19T10:49:31.858Z,27.90
2019-05-19T10:52:19.647Z,28.08
2019-05-19T10:55:06.426Z,28.10
2019-05-19T10:57:54.541Z,29.45
2019-05-19T11:00:49.100Z,28.52
2019-05-19T11:03:36.298Z,28.57
2019-05-19T11:24:59.579Z,27.94
2019-05-19T11:31:08.999Z,28.12
2019-05-19T11:33:55.835Z,28.26
2019-05-19T11:36:42.947Z,28.29
2019-05-19T11:39:29.973Z,28.38
2019-05-19T11:51:35.141Z,29.07
2019-05-19T11:54:21.934Z,29.39
2019-05-19T11:57:08.601Z,29.51
2019-05-19T12:03:01.319Z,30.18
2019-05-19T12:05:49.319Z,30.03
2019-05-19T12:11:42.843Z,31.09
2019-05-19T12:14:29.505Z,31.18
2019-05-19T12:17:16.336Z,31.27
2019-05-19T12:20:03.252Z,29.92
2019-05-19T12:22:50.385Z,29.66
2019-05-19T12:25:40.785Z,29.36
2019-05-19T12:28:27.877Z,29.28
2019-05-19T12:31:29.550Z,29.25
2019-05-19T12:34:16.343Z,29.37
2019-05-19T12:37:03.078Z,29.52
2019-05-19T12:39:50.646Z,29.60
2019-05-19T12:42:37.669Z,29.46
2019-05-19T12:45:24.916Z,29.57
2019-05-19T12:48:12.055Z,31.03
2019-05-19T12:50:58.991Z,30.22
2019-05-19T12:53:46.003Z,30.22
2019-05-19T12:56:39.849Z,31.36
2019-05-19T13:02:26.349Z,30.20
2019-05-19T13:05:13.017Z,30.16
2019-05-19T13:08:00.057Z,30.11
2019-05-19T13:10:47.774Z,30.16
2019-05-19T13:13:35.812Z,30.38
2019-05-19T13:16:23.767Z,30.57
2019-05-19T13:19:10.984Z,30.70
2019-05-19T13:22:00.127Z,30.75
2019-05-19T13:27:53.722Z,30.71
2019-05-19T13:30:43.533Z,30.63
2019-05-19T13:33:29.060Z,30.68
2019-05-19T13:36:17.714Z,30.64
2019-05-19T13:39:05.878Z,30.65
2019-05-19T13:41:52.636Z,30.74
2019-05-19T13:44:41.023Z,32.09
2019-05-19T13:47:28.738Z,31.12
2019-05-19T13:50:15.477Z,31.11
2019-05-19T13:53:16.844Z,31.20
2019-05-19T13:56:04.074Z,31.22
2019-05-19T13:58:50.663Z,31.22
2019-05-19T14:01:37.473Z,31.19
2019-05-19T14:07:30.731Z,30.99
2019-05-19T14:10:18.163Z,31.07
2019-05-19T14:16:11.255Z,31.25
2019-05-19T14:19:01.692Z,32.59
2019-05-19T14:21:48.869Z,31.74
2019-05-19T14:24:35.621Z,31.65
2019-05-19T14:27:30.438Z,31.55
2019-05-19T14:36:23.676Z,30.84
2019-05-19T14:39:10.609Z,30.50
2019-05-19T14:41:58.185Z,30.48
2019-05-19T14:44:45.864Z,30.87
2019-05-19T14:47:34.010Z,30.90
2019-05-19T14:53:28.174Z,30.39
2019-05-19T14:56:18.603Z,31.41
2019-05-19T14:59:06.806Z,31.61
2019-05-19T15:01:54.252Z,31.55
2019-05-19T15:04:45.010Z,32.31
2019-05-19T15:10:43.953Z,33.77
2019-05-19T15:16:43.065Z,34.12
2019-05-19T15:22:37.289Z,35.08
2019-05-19T15:28:31.158Z,34.80
2019-05-19T15:31:20.913Z,35.12
2019-05-19T15:34:08.060Z,35.26
2019-05-19T15:36:58.135Z,35.47
2019-05-19T15:42:53.850Z,35.55
2019-05-19T15:45:39.318Z,35.88
2019-05-19T15:48:26.035Z,35.99
2019-05-19T15:51:13.248Z,36.17
2019-05-19T15:54:00.394Z,36.31
2019-05-19T15:56:47.309Z,36.43
2019-05-19T15:59:35.732Z,37.72
2019-05-19T16:02:22.617Z,36.59
2019-05-19T16:05:09.612Z,36.25
2019-05-19T16:07:58.313Z,35.97
2019-05-19T16:13:51.964Z,35.65
2019-05-19T16:16:38.910Z,35.51
2019-05-19T16:19:27.545Z,35.57
2019-05-19T16:22:14.828Z,35.53
2019-05-19T16:28:08.247Z,36.48
2019-05-19T16:30:55.345Z,36.42
2019-05-19T16:33:43.380Z,36.37
2019-05-19T16:36:30.433Z,36.34
2019-05-19T16:42:24.684Z,36.00
2019-05-19T16:45:11.529Z,35.97
2019-05-19T16:47:58.829Z,36.07
2019-05-19T16:50:45.979Z,36.31
2019-05-19T16:53:33.274Z,36.48
2019-05-19T16:56:22.522Z,36.70
2019-05-19T16:59:09.434Z,36.94
2019-05-19T17:01:57.263Z,39.12
2019-05-19T17:04:44.296Z,37.62
2019-05-19T17:07:31.477Z,37.54
2019-05-19T17:10:18.617Z,39.56
2019-05-19T17:13:05.629Z,38.04
2019-05-19T17:15:52.376Z,37.77
2019-05-19T17:18:40.790Z,37.73
2019-05-19T17:21:28.096Z,37.71
2019-05-19T17:24:15.327Z,37.60
2019-05-19T17:27:02.367Z,37.54
2019-05-19T17:29:49.274Z,37.36
2019-05-19T17:32:36.613Z,37.13
2019-05-19T17:35:24.225Z,37.07
2019-05-19T17:38:11.243Z,36.98
2019-05-19T17:40:59.584Z,36.89
2019-05-19T17:43:46.420Z,36.84
2019-05-19T17:46:33.673Z,36.67
2019-05-19T17:49:21.065Z,36.23
2019-05-19T17:52:07.850Z,35.71
2019-05-19T17:54:55.048Z,37.89
2019-05-19T17:57:57.445Z,36.17
2019-05-19T18:00:45.890Z,37.89
2019-05-19T18:03:33.383Z,35.90
2019-05-19T18:06:20.299Z,35.04
2019-05-19T18:09:21.757Z,34.71
2019-05-19T18:12:08.472Z,34.32
2019-05-19T18:14:55.388Z,33.68
2019-05-19T18:17:42.430Z,32.69
2019-05-19T18:20:29.519Z,31.78
2019-05-19T18:23:23.493Z,31.10
2019-05-19T18:26:10.830Z,30.54
2019-05-19T18:28:57.695Z,29.74
2019-05-19T18:31:45.174Z,28.94
2019-05-19T18:34:33.070Z,28.28
2019-05-19T18:37:20.114Z,27.72
2019-05-19T18:43:14.159Z,26.63
2019-05-19T18:46:01.190Z,26.15
2019-05-19T18:48:48.510Z,26.92
2019-05-19T18:51:35.630Z,25.64
2019-05-19T18:54:23.161Z,25.15
2019-05-19T18:57:10.194Z,24.76
2019-05-19T18:59:57.064Z,24.41
2019-05-19T19:02:44.030Z,24.12
2019-05-19T19:05:31.451Z,23.84
2019-05-19T19:08:19.649Z,23.57
2019-05-19T19:11:07.379Z,23.29
2019-05-19T19:13:54.290Z,23.02
2019-05-19T19:16:40.997Z,22.70
2019-05-19T19:19:28.218Z,22.40
2019-05-19T19:22:14.946Z,22.13
2019-05-19T19:25:01.736Z,21.91
2019-05-19T19:27:49.538Z,21.70
2019-05-19T19:30:36.761Z,21.52
2019-05-19T19:33:24.636Z,21.41
2019-05-19T19:36:11.755Z,21.28
2019-05-19T19:38:59.669Z,21.13
2019-05-19T19:42:01.327Z,20.98
2019-05-19T19:44:55.041Z,20.76
2019-05-19T19:50:48.198Z,20.39
2019-05-19T19:53:36.093Z,21.10
2019-05-19T19:56:23.352Z,20.42
2019-05-19T19:59:11.451Z,20.20
2019-05-19T20:02:12.712Z,20.04
2019-05-19T20:04:59.523Z,19.81
2019-05-19T20:07:46.519Z,19.55
2019-05-19T20:10:40.085Z,19.32
2019-05-19T20:13:27.217Z,20.03
2019-05-19T20:16:14.214Z,19.32
2019-05-19T20:19:01.576Z,19.14
2019-05-19T20:21:51.873Z,19.83
2019-05-19T20:27:45.023Z,18.89
2019-05-19T20:30:36.204Z,18.70
2019-05-19T20:33:19.978Z,18.54
2019-05-19T20:36:06.991Z,18.41
2019-05-19T20:42:08.317Z,18.15
2019-05-19T20:44:55.657Z,18.05
2019-05-19T20:47:44.656Z,17.97
2019-05-19T20:50:34.636Z,17.86
2019-05-19T20:53:22.438Z,17.78
2019-05-19T20:56:10.126Z,17.70
2019-05-19T20:58:57.877Z,17.63
2019-05-19T21:01:45.170Z,17.57
2019-05-19T21:04:31.748Z,17.52
2019-05-19T21:07:21.301Z,17.45
2019-05-19T21:10:05.861Z,17.43
2019-05-19T21:12:53.576Z,17.37
2019-05-19T21:15:40.632Z,17.30
2019-05-19T21:18:27.375Z,17.25
2019-05-19T21:21:22.016Z,17.27
2019-05-19T21:24:11.573Z,17.30
2019-05-19T21:26:57.049Z,17.33
2019-05-19T21:29:44.199Z,17.35
2019-05-19T21:32:30.881Z,17.35
2019-05-19T21:35:18.661Z,17.34
2019-05-19T21:38:06.248Z,17.32
2019-05-19T21:40:53.744Z,17.31
2019-05-19T21:43:41.363Z,17.26
2019-05-19T21:46:28.236Z,17.22
2019-05-19T21:49:15.340Z,17.19
2019-05-19T21:52:02.266Z,17.17
2019-05-19T21:54:49.590Z,17.16
2019-05-19T21:57:43.861Z,17.16
2019-05-19T22:00:30.462Z,17.13
2019-05-19T22:03:18.398Z,17.13
2019-05-19T22:06:06.315Z,17.09
2019-05-19T22:08:53.255Z,17.07
2019-05-19T22:11:39.982Z,17.03
2019-05-19T22:14:27.404Z,16.99
2019-05-19T22:17:14.894Z,16.90
2019-05-19T22:20:02.109Z,16.81
2019-05-19T22:22:50.233Z,16.71
2019-05-19T22:25:51.320Z,16.62
2019-05-19T22:28:38.438Z,16.53
2019-05-19T22:31:36.280Z,16.48
2019-05-19T22:34:12.874Z,16.43
2019-05-19T22:36:59.579Z,16.42
2019-05-19T22:39:46.784Z,16.41
2019-05-19T22:42:35.726Z,16.35
2019-05-19T22:45:22.884Z,16.35
2019-05-19T22:48:09.683Z,16.35
2019-05-19T22:50:56.582Z,16.34
2019-05-19T22:53:44.015Z,16.30
2019-05-19T22:56:31.179Z,16.28
2019-05-19T22:59:19.985Z,16.90
2019-05-19T23:02:05.645Z,16.47
2019-05-19T23:04:53.596Z,16.39
2019-05-19T23:07:48.494Z,16.34
2019-05-19T23:10:36.252Z,16.30
2019-05-19T23:13:23.133Z,16.24
2019-05-19T23:19:16.097Z,16.15
2019-05-19T23:22:03.737Z,16.13
2019-05-19T23:24:50.522Z,16.10
2019-05-19T23:27:37.759Z,16.08
2019-05-19T23:30:24.841Z,16.06
2019-05-19T23:33:11.645Z,16.02
2019-05-19T23:35:59.472Z,16.65
2019-05-19T23:38:47.455Z,16.84
2019-05-19T23:41:34.608Z,16.32
2019-05-19T23:44:28.663Z,16.85
2019-05-19T23:47:16.261Z,16.32
2019-05-19T23:50:03.201Z,16.19
2019-05-19T23:52:52.395Z,16.11
2019-05-19T23:55:40.407Z,16.03
2019-05-19T23:58:34.351Z,15.94
